Time;durP1;ratioP1;P1;durP2;ratioP2;P2;SDS_P1;SDS_P2;PMS_P1;PMS_P2;Temp;Humidity;BMP_temperature;BMP_pressure;BME280_temperature;BME280_humidity;BME280_pressure;Samples;Min_cycle;Max_cycle;Signal;HPM_P1;HPM_P2
2021/06/06 00:01:37;;;;;;;73.90;32.72;;;15.30;99.90;;;;;;5094981;28;20159;-58
2021/06/06 00:04:04;;;;;;;53.47;27.95;;;15.30;99.90;;;;;;5094656;28;20047;-58
2021/06/06 00:06:34;;;;;;;70.85;33.35;;;15.20;99.90;;;;;;5094440;28;20051;-57
2021/06/06 00:09:01;;;;;;;65.20;32.22;;;15.30;99.90;;;;;;5094392;28;20127;-57
2021/06/06 00:11:34;;;;;;;64.95;32.13;;;15.30;99.90;;;;;;5094387;28;20048;-58
2021/06/06 00:14:03;;;;;;;74.63;32.65;;;15.20;99.90;;;;;;5094422;28;20139;-58
2021/06/06 00:16:34;;;;;;;67.45;32.90;;;15.20;99.90;;;;;;5094627;28;20044;-58
2021/06/06 00:19:00;;;;;;;84.47;33.97;;;15.20;99.90;;;;;;5094456;28;20083;-57
2021/06/06 00:21:27;;;;;;;76.15;33.58;;;15.20;99.90;;;;;;5094194;28;20079;-58
2021/06/06 00:23:55;;;;;;;64.07;33.60;;;15.20;99.90;;;;;;5094438;28;20871;-58
2021/06/06 00:26:21;;;;;;;76.05;35.33;;;15.20;99.90;;;;;;5094531;28;20048;-58
2021/06/06 00:28:47;;;;;;;74.97;34.33;;;15.20;99.90;;;;;;5094477;28;20078;-58
2021/06/06 00:31:13;;;;;;;58.50;28.35;;;15.20;99.90;;;;;;5094000;28;20504;-58
2021/06/06 00:33:39;;;;;;;60.22;32.30;;;15.20;99.90;;;;;;5094081;28;20058;-58
2021/06/06 00:36:08;;;;;;;67.68;32.85;;;15.20;99.90;;;;;;5093851;28;20048;-58
2021/06/06 00:38:34;;;;;;;;;;;15.20;99.90;;;;;;5094022;28;20040;-58
2021/06/06 00:41:00;;;;;;;71.63;33.75;;;15.20;99.90;;;;;;5092553;28;19927;-57
2021/06/06 00:43:27;;;;;;;60.85;33.15;;;15.30;99.90;;;;;;5093859;28;20036;-57
2021/06/06 00:45:54;;;;;;;66.90;35.08;;;15.20;99.90;;;;;;5093708;28;20520;-58
2021/06/06 00:48:20;;;;;;;66.10;35.15;;;15.30;99.90;;;;;;5093656;28;20084;-57
2021/06/06 00:50:51;;;;;;;56.38;32.95;;;15.20;99.90;;;;;;5093459;28;20078;-55
2021/06/06 00:53:44;;;;;;;57.72;33.85;;;15.20;99.90;;;;;;5093911;28;20398;-55
2021/06/06 00:56:15;;;;;;;57.38;34.58;;;15.30;99.90;;;;;;5093584;28;20040;-56
2021/06/06 00:58:42;;;;;;;57.90;35.00;;;15.30;99.90;;;;;;5093253;28;20048;-56
2021/06/06 01:01:10;;;;;;;53.17;32.58;;;15.20;99.90;;;;;;5093377;28;20040;-56
2021/06/06 01:03:36;;;;;;;50.30;29.50;;;15.20;99.90;;;;;;5092982;28;20150;-55
2021/06/06 01:06:11;;;;;;;48.33;32.67;;;15.30;99.90;;;;;;5093418;28;20138;-56
2021/06/06 01:08:40;;;;;;;50.08;31.80;;;15.30;99.90;;;;;;5093291;28;20486;-57
2021/06/06 01:11:27;;;;;;;50.10;33.83;;;15.20;99.90;;;;;;5093263;28;20105;-57
2021/06/06 01:14:01;;;;;;;54.13;32.97;;;15.20;99.90;;;;;;5093052;28;20043;-57
2021/06/06 01:16:37;;;;;;;45.05;29.52;;;15.20;99.90;;;;;;5093240;28;20048;-57
2021/06/06 01:19:34;;;;;;;55.15;32.38;;;15.30;99.90;;;;;;5093119;28;20078;-58
2021/06/06 01:22:17;;;;;;;56.03;34.17;;;15.30;99.90;;;;;;5093295;28;20048;-57
2021/06/06 01:25:14;;;;;;;52.05;30.15;;;15.20;99.90;;;;;;5092976;28;20039;-57
2021/06/06 01:27:45;;;;;;;43.38;30.58;;;15.30;99.90;;;;;;5030604;28;20050;-57
2021/06/06 01:30:18;;;;;;;51.60;33.13;;;15.20;99.90;;;;;;5030654;28;20156;-57
2021/06/06 01:33:01;;;;;;;47.83;30.13;;;15.30;99.90;;;;;;5030535;28;20447;-58
2021/06/06 01:35:38;;;;;;;42.42;31.58;;;15.30;99.90;;;;;;5030417;28;20060;-57
2021/06/06 01:38:15;;;;;;;46.75;29.85;;;15.30;99.90;;;;;;5030287;28;20037;-57
2021/06/06 01:40:43;;;;;;;55.35;34.85;;;15.30;99.90;;;;;;5030433;28;20050;-57
2021/06/06 01:43:21;;;;;;;49.63;28.47;;;15.20;99.90;;;;;;5030213;28;20500;-57
2021/06/06 01:45:52;;;;;;;50.38;31.58;;;15.20;99.90;;;;;;5030453;28;20140;-57
2021/06/06 01:48:18;;;;;;;52.13;33.70;;;15.30;99.90;;;;;;5030231;28;20049;-57
2021/06/06 01:51:11;;;;;;;45.55;31.48;;;15.30;99.90;;;;;;5030152;28;20049;-57
2021/06/06 01:53:42;;;;;;;43.03;29.90;;;15.20;99.90;;;;;;5030127;28;20049;-57
2021/06/06 01:56:10;;;;;;;49.90;31.25;;;15.20;99.90;;;;;;5030055;28;20526;-57
2021/06/06 01:58:37;;;;;;;49.50;33.22;;;15.20;99.90;;;;;;5029885;28;20050;-58
2021/06/06 02:01:24;;;;;;;52.67;32.53;;;15.20;99.90;;;;;;5030017;28;20045;-57
2021/06/06 02:03:52;;;;;;;45.42;29.30;;;15.20;99.90;;;;;;5046431;28;20119;-57
2021/06/06 02:06:21;;;;;;;40.22;29.17;;;15.20;99.90;;;;;;5092325;28;20074;-57
2021/06/06 02:08:47;;;;;;;44.60;31.55;;;15.20;99.90;;;;;;5092343;28;20130;-57
2021/06/06 02:11:40;;;;;;;44.08;31.17;;;15.20;99.90;;;;;;5092235;28;20088;-57
2021/06/06 02:14:11;;;;;;;38.55;30.65;;;15.20;99.90;;;;;;5091683;28;20040;-57
2021/06/06 02:16:42;;;;;;;38.45;30.00;;;15.20;99.90;;;;;;5092128;28;20092;-58
2021/06/06 02:19:08;;;;;;;43.45;28.45;;;15.20;99.90;;;;;;5092114;28;20481;-57
2021/06/06 02:21:34;;;;;;;44.03;30.67;;;15.20;99.90;;;;;;5092091;28;20044;-57
2021/06/06 02:24:02;;;;;;;36.78;27.10;;;15.20;99.90;;;;;;5091816;28;20486;-57
2021/06/06 02:26:36;;;;;;;39.92;30.02;;;15.20;99.90;;;;;;5092038;28;20067;-57
2021/06/06 02:29:26;;;;;;;36.78;26.48;;;15.20;99.90;;;;;;5091837;28;20051;-57
2021/06/06 02:31:58;;;;;;;40.78;28.58;;;15.20;99.90;;;;;;5091960;28;20070;-57
2021/06/06 02:34:35;;;;;;;46.28;29.67;;;15.20;99.90;;;;;;5091962;28;20040;-57
2021/06/06 02:37:10;;;;;;;44.28;28.52;;;15.20;99.90;;;;;;5091689;28;20489;-57
2021/06/06 02:39:40;;;;;;;41.70;29.70;;;15.20;99.90;;;;;;5092051;28;20044;-57
2021/06/06 02:42:14;;;;;;;38.78;29.08;;;15.10;99.90;;;;;;5091982;28;20405;-57
2021/06/06 02:44:53;;;;;;;40.70;27.40;;;15.20;99.90;;;;;;5092128;28;20037;-57
2021/06/06 02:47:26;;;;;;;35.00;26.48;;;15.20;99.90;;;;;;5091663;28;20393;-57
2021/06/06 02:49:55;;;;;;;39.58;24.48;;;15.20;99.90;;;;;;5091839;28;20105;-57
2021/06/06 02:52:40;;;;;;;46.70;30.58;;;15.20;99.90;;;;;;5091782;28;20048;-57
2021/06/06 02:55:20;;;;;;;37.90;26.70;;;15.10;99.90;;;;;;5092030;28;20082;-57
2021/06/06 02:58:01;;;;;;;42.72;26.75;;;15.10;99.90;;;;;;5091901;28;20067;-57
2021/06/06 03:00:32;;;;;;;41.20;27.23;;;15.10;99.90;;;;;;5093041;28;20200;-57
2021/06/06 03:03:05;;;;;;;36.15;25.48;;;15.20;99.90;;;;;;5112022;28;20124;-58
2021/06/06 03:05:31;;;;;;;42.05;25.77;;;15.10;99.90;;;;;;5111869;28;20061;-57
2021/06/06 03:08:01;;;;;;;39.90;25.80;;;15.20;99.90;;;;;;5111811;28;20051;-57
2021/06/06 03:10:30;;;;;;;33.97;25.33;;;15.20;99.90;;;;;;5111682;28;20044;-58
2021/06/06 03:13:01;;;;;;;42.58;28.60;;;15.20;99.90;;;;;;5112200;28;20044;-57
2021/06/06 03:15:31;;;;;;;42.60;26.55;;;15.20;99.90;;;;;;5111879;28;20393;-57
2021/06/06 03:17:58;;;;;;;42.70;27.33;;;15.20;99.90;;;;;;5111671;28;20474;-57
2021/06/06 03:20:29;;;;;;;39.20;28.15;;;15.10;99.90;;;;;;5111860;28;20035;-57
2021/06/06 03:22:57;;;;;;;47.38;27.75;;;15.10;99.90;;;;;;5111569;28;20039;-57
2021/06/06 03:25:41;;;;;;;45.72;28.52;;;15.20;99.90;;;;;;5111701;28;20059;-58
2021/06/06 03:28:11;;;;;;;46.58;29.00;;;15.10;99.90;;;;;;5115748;28;20127;-58
2021/06/06 03:30:44;;;;;;;40.30;29.42;;;15.10;99.90;;;;;;5115526;28;20497;-58
2021/06/06 03:33:19;;;;;;;38.30;27.40;;;15.10;99.90;;;;;;5115532;28;20074;-58
2021/06/06 03:35:45;;;;;;;43.15;30.65;;;15.10;99.90;;;;;;5115321;28;20051;-57
2021/06/06 03:38:12;;;;;;;32.03;24.95;;;15.10;99.90;;;;;;5115366;28;20041;-58
2021/06/06 03:40:43;;;;;;;43.60;29.20;;;15.10;99.90;;;;;;5115515;28;20086;-58
2021/06/06 03:43:12;;;;;;;35.95;26.75;;;15.00;99.90;;;;;;5115178;28;20043;-57
2021/06/06 03:45:39;;;;;;;38.83;30.80;;;15.10;99.90;;;;;;5096953;28;20501;-57
2021/06/06 03:48:05;;;;;;;46.35;30.95;;;15.00;99.90;;;;;;5115177;28;20093;-58
2021/06/06 03:50:33;;;;;;;45.33;33.10;;;15.00;99.90;;;;;;5115194;28;20038;-58
2021/06/06 03:52:59;;;;;;;42.60;28.50;;;15.00;99.90;;;;;;5115247;28;20051;-57
2021/06/06 03:55:25;;;;;;;40.70;29.88;;;15.00;99.90;;;;;;5115054;28;20044;-58
2021/06/06 03:57:51;;;;;;;44.28;32.13;;;15.00;99.90;;;;;;5114928;28;20468;-58
2021/06/06 04:00:47;;;;;;;44.75;33.63;;;15.00;99.90;;;;;;5114872;28;20052;-57
2021/06/06 04:03:14;;;;;;;43.03;32.72;;;15.00;99.90;;;;;;5012348;28;20069;-58
2021/06/06 04:05:40;;;;;;;36.00;29.65;;;15.00;99.90;;;;;;5012361;28;20046;-58
2021/06/06 04:08:07;;;;;;;39.10;31.35;;;15.00;99.90;;;;;;5011972;28;20050;-57
2021/06/06 04:10:34;;;;;;;35.95;27.52;;;15.00;99.90;;;;;;5012287;28;20116;-57
2021/06/06 04:13:00;;;;;;;39.40;29.08;;;15.00;99.90;;;;;;5012254;28;20042;-57
2021/06/06 04:15:26;;;;;;;39.80;30.52;;;15.00;99.90;;;;;;5012165;28;20048;-58
2021/06/06 04:17:52;;;;;;;43.88;30.30;;;15.00;99.90;;;;;;5012007;28;20054;-57
2021/06/06 04:20:22;;;;;;;31.50;25.05;;;15.00;99.90;;;;;;5012123;28;20145;-57
2021/06/06 04:22:47;;;;;;;40.17;30.42;;;15.00;99.90;;;;;;5012057;28;20471;-57
2021/06/06 04:25:18;;;;;;;35.42;28.63;;;15.00;99.90;;;;;;5012030;28;20073;-57
2021/06/06 04:27:44;;;;;;;29.48;24.45;;;15.00;99.90;;;;;;5011961;28;20467;-57
2021/06/06 04:30:12;;;;;;;39.15;28.60;;;15.00;99.90;;;;;;5012045;28;20057;-58
2021/06/06 04:32:39;;;;;;;33.13;24.30;;;15.00;99.90;;;;;;5011948;28;20136;-57
2021/06/06 04:35:05;;;;;;;30.10;24.02;;;14.90;99.90;;;;;;5011890;28;20502;-58
2021/06/06 04:37:31;;;;;;;42.10;27.95;;;14.90;99.90;;;;;;5010957;28;20046;-57
2021/06/06 04:39:57;;;;;;;31.48;26.02;;;14.90;99.90;;;;;;5079194;28;20523;-57
2021/06/06 04:42:23;;;;;;;38.70;27.27;;;15.00;99.90;;;;;;5114172;28;20136;-57
2021/06/06 04:44:49;;;;;;;39.63;25.73;;;15.00;99.90;;;;;;5114275;28;20040;-58
2021/06/06 04:47:15;;;;;;;40.25;26.67;;;15.00;99.90;;;;;;5114185;28;20054;-57
2021/06/06 04:49:44;;;;;;;43.90;28.35;;;14.90;99.90;;;;;;5113842;28;20521;-58
2021/06/06 04:52:12;;;;;;;40.55;28.33;;;14.90;99.90;;;;;;5114038;28;20043;-57
2021/06/06 04:54:39;;;;;;;42.67;27.42;;;14.90;99.90;;;;;;5113894;28;20043;-57
2021/06/06 04:57:07;;;;;;;42.35;27.63;;;15.00;99.90;;;;;;5113795;28;20096;-57
2021/06/06 04:59:37;;;;;;;38.22;26.20;;;15.00;99.90;;;;;;5113677;28;20075;-58
2021/06/06 05:02:10;;;;;;;34.30;23.80;;;15.00;99.90;;;;;;5113932;28;20045;-58
2021/06/06 05:04:36;;;;;;;39.30;27.00;;;15.00;99.90;;;;;;5114057;28;20063;-58
2021/06/06 05:07:03;;;;;;;45.33;26.40;;;15.00;99.90;;;;;;5113927;28;20051;-57
2021/06/06 05:09:28;;;;;;;35.05;26.20;;;15.00;99.90;;;;;;5113900;28;20097;-58
2021/06/06 05:11:54;;;;;;;38.72;27.25;;;15.00;99.90;;;;;;5113578;28;20035;-58
2021/06/06 05:14:20;;;;;;;40.97;26.63;;;14.90;99.90;;;;;;5113476;28;20058;-58
2021/06/06 05:16:46;;;;;;;36.42;24.00;;;15.00;99.90;;;;;;5113647;28;20039;-58
2021/06/06 05:19:12;;;;;;;33.80;23.48;;;15.00;99.90;;;;;;5113351;28;20052;-58
2021/06/06 05:21:39;;;;;;;40.13;24.02;;;15.00;99.90;;;;;;5113374;28;20092;-57
2021/06/06 05:24:06;;;;;;;36.85;23.55;;;15.10;99.90;;;;;;5113371;28;20473;-57
2021/06/06 05:26:32;;;;;;;35.72;23.20;;;15.10;99.90;;;;;;5113356;28;20047;-58
2021/06/06 05:28:58;;;;;;;32.28;21.08;;;15.10;99.90;;;;;;5113436;28;20043;-58
2021/06/06 05:31:24;;;;;;;34.65;22.98;;;15.10;99.90;;;;;;5113242;28;20417;-58
2021/06/06 05:33:50;;;;;;;45.95;25.65;;;15.10;99.90;;;;;;5113253;28;20054;-57
2021/06/06 05:36:16;;;;;;;43.20;25.65;;;15.10;99.90;;;;;;5094811;28;20047;-57
2021/06/06 05:38:42;;;;;;;43.55;25.60;;;15.00;99.90;;;;;;5113232;28;20135;-57
2021/06/06 05:41:10;;;;;;;48.97;27.35;;;15.00;99.90;;;;;;5113129;28;20146;-57
2021/06/06 05:43:36;;;;;;;42.25;25.60;;;14.90;99.90;;;;;;5113113;28;20443;-58
2021/06/06 05:46:03;;;;;;;46.35;26.85;;;15.00;99.90;;;;;;5112894;28;20044;-57
2021/06/06 05:48:28;;;;;;;46.15;24.33;;;15.00;99.90;;;;;;5112797;28;20067;-57
2021/06/06 05:51:01;;;;;;;42.83;26.10;;;14.90;99.90;;;;;;5111789;28;20073;-58
2021/06/06 05:53:28;;;;;;;38.75;24.00;;;15.00;99.90;;;;;;5113033;28;20035;-57
2021/06/06 05:55:55;;;;;;;47.25;24.90;;;15.00;99.90;;;;;;5112874;28;20050;-57
2021/06/06 05:58:20;;;;;;;42.92;25.55;;;15.00;99.90;;;;;;5112438;28;20476;-58
2021/06/06 06:00:47;;;;;;;49.08;25.90;;;15.00;99.90;;;;;;5112667;28;20067;-57
2021/06/06 06:03:14;;;;;;;47.95;26.52;;;15.00;99.90;;;;;;5112575;28;20062;-57
2021/06/06 06:05:39;;;;;;;51.03;26.92;;;15.00;99.90;;;;;;5112623;28;20081;-57
2021/06/06 06:08:39;;;;;;;40.45;23.90;;;14.90;99.90;;;;;;5112431;28;20052;-57
2021/06/06 06:11:08;;;;;;;46.00;25.05;;;15.00;99.90;;;;;;5010300;28;20166;-57
2021/06/06 06:13:34;;;;;;;45.28;24.75;;;15.00;99.90;;;;;;5010345;28;20049;-58
2021/06/06 06:16:02;;;;;;;40.85;23.85;;;14.90;99.90;;;;;;5010190;28;20052;-57
2021/06/06 06:18:30;;;;;;;44.30;23.73;;;15.00;99.90;;;;;;5010122;28;20198;-57
2021/06/06 06:20:57;;;;;;;47.23;26.83;;;14.90;99.90;;;;;;5009982;28;20096;-57
2021/06/06 06:23:23;;;;;;;43.22;23.35;;;14.90;99.90;;;;;;5010014;28;20739;-57
2021/06/06 06:25:50;;;;;;;36.30;22.80;;;14.90;99.90;;;;;;5010175;28;20049;-58
2021/06/06 06:28:23;;;;;;;41.40;23.10;;;14.90;99.90;;;;;;5009679;28;20499;-57
2021/06/06 06:30:49;;;;;;;41.58;22.42;;;14.90;99.90;;;;;;5009759;28;20408;-58
2021/06/06 06:33:16;;;;;;;45.40;22.90;;;14.90;99.90;;;;;;4993536;28;20419;-57
2021/06/06 06:35:42;;;;;;;42.45;22.85;;;14.90;99.90;;;;;;5009806;28;20065;-57
2021/06/06 06:38:08;;;;;;;41.55;21.73;;;14.90;99.90;;;;;;5009747;28;20044;-58
2021/06/06 06:40:35;;;;;;;36.63;20.52;;;14.90;99.90;;;;;;5009823;28;20046;-58
2021/06/06 06:43:02;;;;;;;41.38;18.83;;;14.90;99.90;;;;;;5009664;28;20124;-57
2021/06/06 06:45:31;;;;;;;41.42;20.63;;;14.80;99.90;;;;;;5011316;28;20076;-57
2021/06/06 06:48:09;;;;;;;36.58;20.75;;;14.90;99.90;;;;;;5112036;28;20122;-58
2021/06/06 06:50:35;;;;;;;33.00;17.70;;;14.90;99.90;;;;;;5111949;28;20039;-57
2021/06/06 06:53:01;;;;;;;38.42;18.17;;;14.90;99.90;;;;;;5112083;28;20039;-58
2021/06/06 06:55:28;;;;;;;30.50;18.30;;;14.90;99.90;;;;;;5112018;28;20479;-57
2021/06/06 06:57:56;;;;;;;28.73;17.38;;;14.80;99.90;;;;;;5112050;28;20507;-58
2021/06/06 07:00:26;;;;;;;33.30;19.05;;;14.80;99.90;;;;;;5111913;28;20055;-57
2021/06/06 07:02:52;;;;;;;40.38;23.17;;;14.90;99.90;;;;;;5097620;28;20040;-57
2021/06/06 07:05:18;;;;;;;40.47;22.95;;;14.90;99.90;;;;;;5115980;28;20042;-58
2021/06/06 07:07:44;;;;;;;41.13;25.42;;;14.80;99.90;;;;;;5116051;28;20047;-57
2021/06/06 07:10:13;;;;;;;48.17;27.73;;;14.90;99.90;;;;;;5097779;28;20089;-57
2021/06/06 07:12:39;;;;;;;50.05;27.35;;;14.90;99.90;;;;;;5116040;28;20044;-57
2021/06/06 07:15:08;;;;;;;43.75;24.40;;;14.90;99.90;;;;;;5115852;28;20078;-58
2021/06/06 07:17:34;;;;;;;52.67;28.90;;;14.90;99.90;;;;;;5115591;28;20472;-57
2021/06/06 07:20:00;;;;;;;57.47;31.27;;;14.90;99.90;;;;;;5115754;28;20130;-58
2021/06/06 07:22:26;;;;;;;51.08;28.25;;;14.90;99.90;;;;;;5115659;28;20123;-57
2021/06/06 07:24:52;;;;;;;54.33;30.33;;;14.90;99.90;;;;;;5115593;28;20031;-57
2021/06/06 07:27:18;;;;;;;43.85;27.85;;;14.90;99.90;;;;;;5115817;28;20100;-57
2021/06/06 07:29:45;;;;;;;48.25;27.42;;;15.00;99.90;;;;;;5115543;28;20042;-58
2021/06/06 07:32:11;;;;;;;54.28;28.70;;;15.00;99.90;;;;;;5115659;28;20089;-57
2021/06/06 07:34:37;;;;;;;44.63;25.00;;;15.10;99.90;;;;;;5115494;28;20039;-57
2021/06/06 07:37:06;;;;;;;48.25;30.38;;;15.00;99.90;;;;;;5115284;28;20049;-57
2021/06/06 07:39:37;;;;;;;33.15;22.02;;;15.00;99.90;;;;;;5115475;28;20055;-57
2021/06/06 07:42:09;;;;;;;40.53;25.00;;;15.10;99.90;;;;;;5115614;28;20150;-58
2021/06/06 07:44:36;;;;;;;43.92;27.73;;;15.10;99.90;;;;;;5115368;28;20057;-58
2021/06/06 07:47:07;;;;;;;34.75;24.85;;;15.20;99.90;;;;;;5115285;28;20051;-57
2021/06/06 07:49:38;;;;;;;36.40;23.58;;;15.20;99.90;;;;;;5115235;28;20043;-58
2021/06/06 07:52:05;;;;;;;43.20;22.67;;;15.10;99.90;;;;;;5115283;28;20103;-57
2021/06/06 07:54:31;;;;;;;35.15;20.65;;;15.10;99.90;;;;;;5112006;28;20401;-58
2021/06/06 07:56:59;;;;;;;33.13;24.20;;;15.10;99.90;;;;;;5093666;28;20036;-57
2021/06/06 07:59:26;;;;;;;37.35;26.02;;;15.10;99.90;;;;;;5094304;28;20052;-57
2021/06/06 08:01:51;;;;;;;38.08;25.20;;;15.10;99.90;;;;;;5094569;28;20115;-57
2021/06/06 08:04:17;;;;;;;40.53;25.63;;;15.10;99.90;;;;;;5094516;28;20174;-57
2021/06/06 08:06:43;;;;;;;39.20;25.45;;;15.10;99.90;;;;;;5094513;28;20044;-58
2021/06/06 08:09:09;;;;;;;35.35;24.83;;;15.20;99.90;;;;;;5094684;28;20048;-57
2021/06/06 08:11:37;;;;;;;32.05;22.63;;;15.10;99.90;;;;;;5094540;28;20572;-57
2021/06/06 08:14:04;;;;;;;33.15;20.25;;;15.20;99.90;;;;;;5092955;28;20054;-57
2021/06/06 08:16:30;;;;;;;25.70;17.13;;;15.20;99.90;;;;;;5076421;28;20048;-57
2021/06/06 08:18:56;;;;;;;32.53;21.63;;;15.20;99.90;;;;;;5094046;28;20044;-58
2021/06/06 08:21:33;;;;;;;30.90;22.25;;;15.20;99.90;;;;;;5094479;28;20105;-57
2021/06/06 08:23:59;;;;;;;37.17;23.55;;;15.20;99.90;;;;;;5094152;28;20106;-57
2021/06/06 08:26:26;;;;;;;43.25;24.25;;;15.20;99.90;;;;;;5094133;28;20068;-58
2021/06/06 08:28:53;;;;;;;30.98;19.52;;;15.20;99.90;;;;;;5094146;28;20047;-57
2021/06/06 08:31:24;;;;;;;36.95;22.52;;;15.20;99.90;;;;;;5094059;28;20123;-58
2021/06/06 08:33:51;;;;;;;26.13;16.67;;;15.20;99.90;;;;;;5075897;28;20048;-57
2021/06/06 08:36:36;;;;;;;31.45;18.30;;;15.20;99.90;;;;;;5076184;28;20059;-57
2021/06/06 08:39:07;;;;;;;27.38;18.23;;;15.10;99.90;;;;;;5093753;28;20044;-58
2021/06/06 08:41:49;;;;;;;32.20;19.70;;;15.20;99.90;;;;;;5093749;28;20048;-58
2021/06/06 08:44:20;;;;;;;28.52;18.70;;;15.10;99.90;;;;;;5093924;28;20048;-58
2021/06/06 08:46:55;;;;;;;29.42;19.77;;;15.10;99.90;;;;;;5093757;28;20036;-57
2021/06/06 08:49:20;;;;;;;30.50;18.13;;;15.10;99.90;;;;;;5093795;28;20074;-58
2021/06/06 08:52:05;;;;;;;27.67;18.73;;;15.10;99.90;;;;;;5093647;28;20121;-58
2021/06/06 08:54:41;;;;;;;31.92;18.63;;;15.10;99.90;;;;;;5093966;28;20122;-57
2021/06/06 08:57:45;;;;;;;20.85;15.23;;;15.10;99.90;;;;;;5093479;28;20474;-58
2021/06/06 09:00:23;;;;;;;26.35;17.23;;;15.20;99.90;;;;;;5093294;28;20414;-58
2021/06/06 09:03:02;;;;;;;29.75;19.00;;;15.10;99.90;;;;;;5093427;28;20032;-57
2021/06/06 09:05:40;;;;;;;26.92;17.85;;;15.10;99.90;;;;;;5093440;28;20042;-57
2021/06/06 09:08:11;;;;;;;26.88;17.48;;;15.10;99.90;;;;;;5093307;28;20436;-58
2021/06/06 09:10:41;;;;;;;22.55;14.80;;;15.10;99.90;;;;;;5093341;28;20048;-58
2021/06/06 09:13:09;;;;;;;24.08;16.58;;;15.20;99.90;;;;;;5093304;28;20048;-58
2021/06/06 09:15:35;;;;;;;18.58;13.07;;;15.20;99.90;;;;;;5093203;28;20036;-58
2021/06/06 09:18:17;;;;;;;21.65;14.23;;;15.20;99.90;;;;;;5093129;28;20055;-58
2021/06/06 09:20:44;;;;;;;14.90;12.43;;;15.20;99.90;;;;;;5093069;28;20072;-57
2021/06/06 09:23:16;;;;;;;20.83;14.13;;;15.20;99.90;;;;;;5092929;28;20085;-56
2021/06/06 09:25:44;;;;;;;20.83;13.38;;;15.20;99.90;;;;;;5093044;28;20048;-56
2021/06/06 09:28:13;;;;;;;18.17;12.40;;;15.30;99.90;;;;;;5093140;28;20093;-56
2021/06/06 09:30:41;;;;;;;16.10;12.57;;;15.30;99.90;;;;;;5092850;28;20056;-56
2021/06/06 09:33:21;;;;;;;11.45;9.50;;;15.30;99.90;;;;;;5092864;28;20097;-55
2021/06/06 09:36:00;;;;;;;14.02;9.38;;;15.30;99.90;;;;;;5092684;28;20040;-56
2021/06/06 09:38:34;;;;;;;13.00;10.05;;;15.30;99.90;;;;;;5092528;28;20079;-56
2021/06/06 09:41:12;;;;;;;13.93;9.50;;;15.30;99.90;;;;;;5092773;28;20036;-56
2021/06/06 09:43:38;;;;;;;11.82;10.20;;;15.30;99.90;;;;;;5092649;28;20042;-55
2021/06/06 09:46:17;;;;;;;13.18;10.65;;;15.30;99.90;;;;;;5092653;28;20044;-56
2021/06/06 09:48:44;;;;;;;13.65;11.40;;;15.40;99.90;;;;;;5092796;28;20051;-56
2021/06/06 09:51:31;;;;;;;13.75;10.27;;;15.40;99.90;;;;;;5092735;28;20047;-56
2021/06/06 09:54:18;;;;;;;10.75;9.05;;;15.40;99.90;;;;;;5092473;28;20398;-56
2021/06/06 09:56:56;;;;;;;12.10;9.10;;;15.40;99.90;;;;;;5092305;28;20044;-56
2021/06/06 09:59:30;;;;;;;11.02;9.25;;;15.50;99.90;;;;;;5092106;28;20417;-56
2021/06/06 10:01:55;;;;;;;7.90;7.10;;;15.50;99.90;;;;;;5092418;28;20039;-56
2021/06/06 10:04:31;;;;;;;6.97;6.25;;;15.50;99.90;;;;;;5092350;28;20040;-56
2021/06/06 10:07:30;;;;;;;10.98;6.78;;;15.50;99.90;;;;;;5092291;28;20167;-56
2021/06/06 10:09:58;;;;;;;5.90;4.95;;;15.60;99.90;;;;;;5092333;28;20068;-56
2021/06/06 10:12:27;;;;;;;5.38;4.88;;;15.60;99.90;;;;;;5092234;28;20046;-56
2021/06/06 10:14:54;;;;;;;;;;;15.60;99.90;;;;;;5092589;28;20097;-56
2021/06/06 10:17:36;;;;;;;5.00;4.60;;;15.70;99.90;;;;;;5092108;28;19961;-56
2021/06/06 10:20:30;;;;;;;4.57;4.00;;;15.70;99.90;;;;;;5092216;28;20048;-56
2021/06/06 10:23:36;;;;;;;4.78;3.92;;;15.70;99.90;;;;;;5092045;28;20044;-56
2021/06/06 10:26:16;;;;;;;4.28;3.88;;;15.70;99.90;;;;;;4982976;28;20053;-56
2021/06/06 10:28:50;;;;;;;4.85;3.72;;;15.70;99.90;;;;;;4990672;28;20456;-56
2021/06/06 10:31:39;;;;;;;4.65;3.42;;;15.70;99.90;;;;;;4990265;28;20050;-56
2021/06/06 10:34:26;;;;;;;4.30;4.00;;;15.80;99.90;;;;;;4990309;28;20046;-56
2021/06/06 10:36:52;;;;;;;5.00;4.10;;;15.70;99.90;;;;;;4991595;28;20104;-56
2021/06/06 10:39:24;;;;;;;3.90;3.60;;;15.70;99.90;;;;;;4998793;28;20047;-56
2021/06/06 10:42:23;;;;;;;5.97;4.28;;;15.70;99.90;;;;;;4999005;28;20132;-56
2021/06/06 10:45:00;;;;;;;4.93;4.45;;;15.70;99.90;;;;;;4923012;29;20043;-56
2021/06/06 10:47:30;;;;;;;6.47;5.75;;;15.70;99.90;;;;;;4922821;29;20082;-56
2021/06/06 10:49:59;;;;;;;5.97;5.38;;;15.70;99.90;;;;;;4921620;29;20055;-56
2021/06/06 10:52:34;;;;;;;6.18;5.30;;;15.70;99.90;;;;;;4922421;29;20044;-56
2021/06/06 10:55:16;;;;;;;7.15;5.72;;;15.70;99.90;;;;;;4915380;29;20069;-56
2021/06/06 10:57:43;;;;;;;5.03;4.57;;;15.70;99.90;;;;;;4925442;29;20134;-56
2021/06/06 11:00:32;;;;;;;4.80;4.40;;;15.70;99.90;;;;;;4932359;29;20557;-56
2021/06/06 11:03:22;;;;;;;5.25;4.75;;;15.70;99.90;;;;;;4982307;28;20144;-56
2021/06/06 11:05:52;;;;;;;5.53;3.70;;;15.70;99.90;;;;;;4990624;28;20164;-56
2021/06/06 11:08:26;;;;;;;4.60;3.72;;;15.60;99.90;;;;;;4990159;28;20054;-56
2021/06/06 11:11:07;;;;;;;5.82;5.32;;;15.60;99.90;;;;;;4990200;28;20049;-56
2021/06/06 11:13:39;;;;;;;8.73;6.45;;;15.70;99.90;;;;;;4989945;28;20043;-56
2021/06/06 11:16:17;;;;;;;6.57;5.88;;;15.70;99.90;;;;;;4989936;28;20459;-56
2021/06/06 11:18:50;;;;;;;7.05;6.35;;;15.70;99.90;;;;;;4990155;28;20508;-56
2021/06/06 11:21:29;;;;;;;7.78;6.75;;;15.70;99.90;;;;;;5016259;28;20505;-56
2021/06/06 11:24:00;;;;;;;8.98;7.57;;;15.60;99.90;;;;;;5091573;28;20047;-56
2021/06/06 11:26:31;;;;;;;9.02;7.63;;;15.50;99.90;;;;;;5091697;28;20070;-56
2021/06/06 11:29:19;;;;;;;11.85;7.65;;;15.50;99.90;;;;;;5091365;28;20044;-56
2021/06/06 11:32:08;;;;;;;8.85;7.10;;;15.50;99.90;;;;;;5084834;28;20535;-56
2021/06/06 11:34:36;;;;;;;9.00;7.50;;;15.60;99.90;;;;;;5078875;28;20052;-56
2021/06/06 11:37:04;;;;;;;9.68;7.60;;;15.50;99.90;;;;;;5085737;28;20052;-56
2021/06/06 11:39:48;;;;;;;11.90;8.25;;;15.50;99.90;;;;;;5091516;28;20044;-56
2021/06/06 11:42:41;;;;;;;8.38;7.03;;;15.60;99.90;;;;;;5091517;28;20040;-56
2021/06/06 11:45:17;;;;;;;9.18;7.32;;;15.60;99.90;;;;;;5091365;28;20044;-55
2021/06/06 11:47:49;;;;;;;10.07;7.60;;;15.60;99.90;;;;;;5093423;28;20044;-56
2021/06/06 11:50:33;;;;;;;7.93;6.32;;;15.70;99.90;;;;;;5079397;28;20041;-56
2021/06/06 11:53:19;;;;;;;10.07;7.38;;;15.70;99.90;;;;;;5085870;28;20066;-56
2021/06/06 11:55:51;;;;;;;11.15;7.50;;;15.70;99.90;;;;;;5079146;28;20040;-56
2021/06/06 11:58:26;;;;;;;7.32;6.05;;;15.70;99.90;;;;;;5076838;28;20155;-56
2021/06/06 12:01:04;;;;;;;9.88;7.50;;;15.70;99.90;;;;;;5080926;28;20072;-56
2021/06/06 12:03:33;;;;;;;10.02;7.50;;;15.70;99.90;;;;;;5084609;28;20036;-56
2021/06/06 12:06:11;;;;;;;10.27;7.35;;;15.70;99.90;;;;;;5075612;28;20826;-56
2021/06/06 12:08:44;;;;;;;14.40;8.68;;;15.60;99.90;;;;;;5080495;28;20043;-55
2021/06/06 12:11:26;;;;;;;12.90;9.38;;;15.60;99.90;;;;;;5079887;28;20045;-56
2021/06/06 12:14:06;;;;;;;13.00;8.48;;;15.60;99.90;;;;;;5067678;28;20383;-56
2021/06/06 12:16:32;;;;;;;10.80;7.68;;;15.60;99.90;;;;;;5071296;28;20063;-56
2021/06/06 12:19:06;;;;;;;10.75;7.85;;;15.60;99.90;;;;;;5084804;28;20036;-56
2021/06/06 12:21:36;;;;;;;17.70;9.98;;;15.70;99.90;;;;;;5085656;28;20044;-58
2021/06/06 12:24:05;;;;;;;14.52;8.65;;;15.60;99.90;;;;;;5068231;28;20378;-57
2021/06/06 12:26:35;;;;;;;13.10;9.80;;;15.70;99.90;;;;;;5091186;28;20043;-57
2021/06/06 12:29:01;;;;;;;13.20;9.25;;;15.70;99.90;;;;;;5090964;28;20048;-58
2021/06/06 12:31:31;;;;;;;13.35;8.70;;;15.60;99.90;;;;;;5090655;28;20478;-57
2021/06/06 12:34:11;;;;;;;15.13;8.30;;;15.70;99.90;;;;;;5090725;28;20032;-58
2021/06/06 12:36:38;;;;;;;10.65;8.07;;;15.80;99.90;;;;;;5090679;28;20078;-57
2021/06/06 12:39:07;;;;;;;17.23;10.63;;;15.80;99.90;;;;;;5090487;28;20044;-58
2021/06/06 12:41:42;;;;;;;12.05;10.18;;;15.80;99.90;;;;;;5081689;28;20077;-57
2021/06/06 12:44:10;;;;;;;18.60;9.45;;;15.90;99.90;;;;;;5087376;28;20390;-58
2021/06/06 12:46:50;;;;;;;26.33;11.88;;;15.90;99.90;;;;;;5083036;28;20046;-57
2021/06/06 12:49:33;;;;;;;17.30;11.40;;;15.90;99.90;;;;;;5073651;28;20045;-58
2021/06/06 12:52:02;;;;;;;26.35;11.88;;;15.90;99.90;;;;;;5073784;28;20055;-58
2021/06/06 12:54:37;;;;;;;15.30;10.40;;;16.00;99.90;;;;;;5073633;28;20045;-57